Time;durP1;ratioP1;P1;durP2;ratioP2;P2;SDS_P1;SDS_P2;PMS_P1;PMS_P2;Temp;Humidity;BMP_temperature;BMP_pressure;BME280_temperature;BME280_humidity;BME280_pressure;Samples;Min_cycle;Max_cycle;Signal;HPM_P1;HPM_P2
2024/03/28 00:01:10;;;;;;;7.17;3.67;;;7.90;99.90;;;;;;6186168;23;20361;-78
2024/03/28 00:03:39;;;;;;;4.87;3.80;;;7.90;99.90;;;;;;6185630;23;20373;-75
2024/03/28 00:06:08;;;;;;;6.70;4.37;;;7.90;99.90;;;;;;6160882;23;20390;-78
2024/03/28 00:08:42;;;;;;;5.40;3.87;;;7.90;99.90;;;;;;6166282;23;20346;-77
2024/03/28 00:11:20;;;;;;;4.80;3.70;;;7.90;99.90;;;;;;6165432;23;20414;-77
2024/03/28 00:13:48;;;;;;;4.70;3.40;;;7.90;99.90;;;;;;6164207;23;20370;-77
2024/03/28 00:16:32;;;;;;;4.53;3.20;;;7.80;99.90;;;;;;6184331;23;20406;-79
2024/03/28 00:19:00;;;;;;;5.07;3.50;;;7.80;99.90;;;;;;6184201;23;20413;-78
2024/03/28 00:21:28;;;;;;;5.63;3.40;;;7.80;99.90;;;;;;6208790;23;20373;-76
2024/03/28 00:23:59;;;;;;;5.97;3.93;;;7.80;99.90;;;;;;6095047;23;20377;-76
2024/03/28 00:26:26;;;;;;;6.73;3.83;;;7.80;99.90;;;;;;6094465;23;20400;-76
2024/03/28 00:28:52;;;;;;;5.80;3.13;;;7.80;99.90;;;;;;6045416;23;20392;-76
2024/03/28 00:31:18;;;;;;;7.57;4.50;;;7.70;99.90;;;;;;6093041;23;20423;-77
2024/03/28 00:33:48;;;;;;;5.67;3.73;;;7.70;99.90;;;;;;6094960;23;20163;-77
2024/03/28 00:36:16;;;;;;;3.47;2.87;;;7.70;99.90;;;;;;6118424;23;20376;-77
2024/03/28 00:38:45;;;;;;;7.33;3.10;;;7.70;99.90;;;;;;6071353;23;20448;-77
2024/03/28 00:41:20;;;;;;;4.43;3.80;;;7.70;99.90;;;;;;6118524;23;20360;-77
2024/03/28 00:43:50;;;;;;;14.73;3.80;;;7.60;99.90;;;;;;6095093;23;20391;-78
2024/03/28 00:46:20;;;;;;;3.87;3.30;;;7.60;99.90;;;;;;6093623;23;20448;-76
2024/03/28 00:48:49;;;;;;;4.40;3.10;;;7.60;99.90;;;;;;6089321;23;20432;-75
2024/03/28 00:51:16;;;;;;;4.80;3.60;;;7.60;99.90;;;;;;6066281;23;20502;-75
2024/03/28 00:53:43;;;;;;;4.10;3.40;;;7.60;99.90;;;;;;6067595;23;20456;-76
2024/03/28 00:56:14;;;;;;;3.60;2.90;;;7.60;99.90;;;;;;6099609;23;20817;-76
2024/03/28 00:58:40;;;;;;;8.30;3.10;;;7.60;99.90;;;;;;6100715;23;20399;-76
2024/03/28 01:01:06;;;;;;;4.80;3.90;;;7.60;99.90;;;;;;6126265;23;20402;-77
2024/03/28 01:03:39;;;;;;;4.80;3.80;;;7.60;99.90;;;;;;6124864;23;20666;-76
2024/03/28 01:06:07;;;;;;;5.60;3.03;;;7.60;99.90;;;;;;6122624;23;20463;-77
2024/03/28 01:08:43;;;;;;;7.80;4.50;;;7.60;99.90;;;;;;6125560;23;20411;-78
2024/03/28 01:11:09;;;;;;;8.10;3.80;;;7.50;99.90;;;;;;6122342;23;20424;-76
2024/03/28 01:13:35;;;;;;;11.30;4.43;;;7.50;99.90;;;;;;6097261;23;20375;-77
2024/03/28 01:16:02;;;;;;;4.53;4.00;;;7.50;99.90;;;;;;6099310;23;20179;-77
2024/03/28 01:18:28;;;;;;;5.07;3.60;;;7.50;99.90;;;;;;6123877;23;20199;-76
2024/03/28 01:21:04;;;;;;;9.93;3.30;;;7.50;99.90;;;;;;6125406;23;20360;-76
2024/03/28 01:23:53;;;;;;;4.83;3.90;;;7.50;99.90;;;;;;6125692;23;20383;-76
2024/03/28 01:26:19;;;;;;;4.93;3.60;;;7.50;99.90;;;;;;6097660;23;20395;-77
2024/03/28 01:28:45;;;;;;;3.80;3.30;;;7.50;99.90;;;;;;6123406;23;20387;-76
2024/03/28 01:31:11;;;;;;;5.30;3.70;;;7.40;99.90;;;;;;6094779;23;20426;-77
2024/03/28 01:33:36;;;;;;;4.10;3.30;;;7.40;99.90;;;;;;6186521;23;20388;-76
2024/03/28 01:36:02;;;;;;;4.67;3.63;;;7.40;99.90;;;;;;6163585;23;20551;-77
2024/03/28 01:38:28;;;;;;;4.93;3.63;;;7.30;99.90;;;;;;6189876;23;20139;-77
2024/03/28 01:40:54;;;;;;;5.90;3.77;;;7.30;99.90;;;;;;6189400;23;20157;-77
2024/03/28 01:43:20;;;;;;;5.33;4.43;;;7.20;99.90;;;;;;6138528;23;20186;-74
2024/03/28 01:45:46;;;;;;;5.10;3.53;;;7.20;99.90;;;;;;6161975;23;20373;-77
2024/03/28 01:48:12;;;;;;;5.03;3.00;;;7.20;99.90;;;;;;6188732;23;20170;-76
2024/03/28 01:50:38;;;;;;;7.03;3.53;;;7.20;99.90;;;;;;6161621;23;20416;-77
2024/03/28 01:53:04;;;;;;;5.73;3.47;;;7.20;99.90;;;;;;6162160;23;20135;-75
2024/03/28 01:55:30;;;;;;;6.20;3.10;;;7.20;99.90;;;;;;6162514;23;20425;-75
2024/03/28 01:57:59;;;;;;;7.20;3.03;;;7.10;99.90;;;;;;6137826;23;20162;-77
2024/03/28 02:00:25;;;;;;;4.90;3.37;;;7.10;99.90;;;;;;6187660;23;20138;-75
2024/03/28 02:02:51;;;;;;;4.73;3.63;;;7.20;99.90;;;;;;6190724;23;20350;-75
2024/03/28 02:05:17;;;;;;;6.43;3.80;;;7.10;99.90;;;;;;6139670;23;20143;-76
2024/03/28 02:07:42;;;;;;;7.23;3.50;;;7.10;99.90;;;;;;6187265;23;20400;-76
2024/03/28 02:10:08;;;;;;;5.87;3.00;;;7.10;99.90;;;;;;6187785;23;20520;-77
2024/03/28 02:12:35;;;;;;;7.30;3.93;;;7.10;99.90;;;;;;6187485;23;20500;-77
2024/03/28 02:15:01;;;;;;;5.23;3.93;;;7.10;99.90;;;;;;6188050;23;20358;-76
2024/03/28 02:17:26;;;;;;;5.10;3.03;;;7.10;99.90;;;;;;6187814;23;20802;-75
2024/03/28 02:19:52;;;;;;;4.53;3.40;;;7.00;99.90;;;;;;6186585;23;20546;-76
2024/03/28 02:22:18;;;;;;;4.30;3.40;;;7.00;99.90;;;;;;6138040;23;20151;-76
2024/03/28 02:24:44;;;;;;;6.30;3.97;;;6.90;99.90;;;;;;6187097;23;20171;-77
2024/03/28 02:27:10;;;;;;;4.73;3.47;;;6.90;99.90;;;;;;6187665;23;20162;-76
2024/03/28 02:29:35;;;;;;;3.97;3.57;;;6.90;99.90;;;;;;6162807;23;20468;-76
2024/03/28 02:32:01;;;;;;;3.80;3.00;;;6.90;99.90;;;;;;6188885;23;20158;-75
2024/03/28 02:34:26;;;;;;;3.80;3.33;;;6.90;99.90;;;;;;6190124;23;20144;-75
2024/03/28 02:36:52;;;;;;;4.30;3.27;;;6.90;99.90;;;;;;6188798;23;20220;-77
2024/03/28 02:39:18;;;;;;;4.80;3.40;;;6.90;99.90;;;;;;6162263;23;20155;-76
2024/03/28 02:41:43;;;;;;;4.80;3.67;;;6.80;99.90;;;;;;6162666;23;20705;-76
2024/03/28 02:44:09;;;;;;;6.87;4.10;;;6.80;99.90;;;;;;6141970;23;20166;-74
2024/03/28 02:46:34;;;;;;;7.80;3.70;;;6.80;99.90;;;;;;6162358;23;20193;-77
2024/03/28 02:49:00;;;;;;;7.00;4.63;;;6.70;99.90;;;;;;6163091;23;20859;-76
2024/03/28 02:51:26;;;;;;;5.13;3.90;;;6.70;99.90;;;;;;6163484;23;20174;-75
2024/03/28 02:53:51;;;;;;;5.47;4.07;;;6.70;99.90;;;;;;6188396;23;20135;-75
2024/03/28 02:56:17;;;;;;;5.40;4.40;;;6.70;99.90;;;;;;6188541;23;20167;-76
2024/03/28 02:58:42;;;;;;;6.10;4.30;;;6.60;99.90;;;;;;6162422;23;20142;-76
2024/03/28 03:01:08;;;;;;;5.73;4.27;;;6.60;99.90;;;;;;6189116;23;20143;-76
2024/03/28 03:03:33;;;;;;;5.07;4.37;;;6.60;99.90;;;;;;6187921;23;20134;-75
2024/03/28 03:05:59;;;;;;;5.70;4.70;;;6.60;99.90;;;;;;6187791;23;20555;-76
2024/03/28 03:08:24;;;;;;;4.20;3.80;;;6.60;99.90;;;;;;6161465;23;20236;-75
2024/03/28 03:10:50;;;;;;;7.57;4.67;;;6.60;99.90;;;;;;6162783;23;20341;-74
2024/03/28 03:13:16;;;;;;;5.20;4.70;;;6.60;99.90;;;;;;6189144;23;20392;-75
2024/03/28 03:15:50;;;;;;;7.80;4.87;;;6.60;99.90;;;;;;6138045;23;20159;-76
2024/03/28 03:18:15;;;;;;;8.17;5.40;;;6.60;99.90;;;;;;6188657;23;20168;-75
2024/03/28 03:20:49;;;;;;;5.30;4.70;;;6.60;99.90;;;;;;6188087;23;20366;-76
2024/03/28 03:23:16;;;;;;;5.13;4.47;;;6.50;99.90;;;;;;6193150;23;20139;-75
2024/03/28 03:25:59;;;;;;;6.40;4.87;;;6.50;99.90;;;;;;6178855;23;20366;-76
2024/03/28 03:36:38;;;;;;;5.90;4.77;;;6.40;99.90;;;;;;6203218;23;20386;-76
2024/03/28 03:39:04;;;;;;;4.93;4.30;;;6.50;99.90;;;;;;6153660;23;20393;-75
2024/03/28 03:41:29;;;;;;;5.70;4.57;;;6.50;99.90;;;;;;6177014;23;20150;-76
2024/03/28 03:43:55;;;;;;;6.87;4.97;;;6.50;99.90;;;;;;6189696;23;20547;-76
2024/03/28 03:46:20;;;;;;;5.83;4.20;;;6.50;99.90;;;;;;6188035;23;20430;-76
2024/03/28 03:48:46;;;;;;;4.83;4.10;;;6.50;99.90;;;;;;6187433;23;20254;-76
2024/03/28 03:51:12;;;;;;;4.60;3.83;;;6.40;99.90;;;;;;6188691;23;20483;-76
2024/03/28 03:53:37;;;;;;;7.80;4.73;;;6.40;99.90;;;;;;6188036;23;20135;-77
2024/03/28 03:56:03;;;;;;;4.93;4.43;;;6.40;99.90;;;;;;6187363;23;20435;-75
2024/03/28 03:58:29;;;;;;;5.50;3.83;;;6.40;99.90;;;;;;6161596;23;20143;-77
2024/03/28 04:00:54;;;;;;;6.80;4.77;;;6.50;99.90;;;;;;6187591;23;20554;-76
2024/03/28 04:03:20;;;;;;;5.43;4.53;;;6.40;99.90;;;;;;6187496;23;20495;-77
2024/03/28 04:05:48;;;;;;;4.43;4.00;;;6.40;99.90;;;;;;6161594;23;20158;-76
2024/03/28 04:08:14;;;;;;;8.30;4.13;;;6.40;99.90;;;;;;6188120;23;20244;-75
2024/03/28 04:10:39;;;;;;;5.57;4.53;;;6.40;99.90;;;;;;6162045;23;20418;-76
2024/03/28 04:13:05;;;;;;;5.97;4.60;;;6.40;99.90;;;;;;6187858;23;20131;-75
2024/03/28 04:15:30;;;;;;;6.67;4.10;;;6.40;99.90;;;;;;6187395;23;20139;-75
2024/03/28 04:17:56;;;;;;;5.73;4.47;;;6.40;99.90;;;;;;6188154;23;20159;-75
2024/03/28 04:20:22;;;;;;;5.00;4.07;;;6.30;99.90;;;;;;6161259;23;20229;-75
2024/03/28 04:22:48;;;;;;;4.77;3.97;;;6.20;99.90;;;;;;6193178;23;20174;-74
2024/03/28 04:25:14;;;;;;;5.07;4.30;;;6.20;99.90;;;;;;6189216;23;20444;-76
2024/03/28 04:27:39;;;;;;;5.40;3.80;;;6.10;99.90;;;;;;6187874;23;20603;-75
2024/03/28 04:30:07;;;;;;;5.30;4.30;;;6.10;99.90;;;;;;6161443;23;20359;-75
2024/03/28 04:32:32;;;;;;;7.97;5.10;;;6.10;99.90;;;;;;6187333;23;20138;-76
2024/03/28 04:34:58;;;;;;;6.87;4.80;;;6.10;99.90;;;;;;6186822;23;20452;-76
2024/03/28 04:37:24;;;;;;;9.57;5.40;;;6.10;99.90;;;;;;6187664;23;20538;-77
2024/03/28 04:39:50;;;;;;;7.53;5.03;;;6.00;99.90;;;;;;6160718;23;20212;-76
2024/03/28 04:42:16;;;;;;;5.50;4.73;;;6.00;99.90;;;;;;6187480;23;20135;-76
2024/03/28 04:44:41;;;;;;;5.70;4.80;;;6.00;99.90;;;;;;6186558;23;20400;-76
2024/03/28 04:47:07;;;;;;;8.00;6.27;;;6.00;99.90;;;;;;6187169;23;20177;-76
2024/03/28 04:49:33;;;;;;;8.13;5.30;;;6.00;99.90;;;;;;6161388;23;20224;-76
2024/03/28 04:51:59;;;;;;;7.00;5.03;;;6.00;99.90;;;;;;6187287;23;20436;-75
2024/03/28 04:54:24;;;;;;;6.00;5.20;;;5.90;99.90;;;;;;6136481;23;20460;-75
2024/03/28 04:56:50;;;;;;;6.13;5.00;;;5.80;99.90;;;;;;6193639;23;20392;-76
2024/03/28 04:59:16;;;;;;;7.73;6.30;;;5.80;99.90;;;;;;6148580;23;20142;-75
2024/03/28 05:01:41;;;;;;;9.07;5.43;;;5.90;99.90;;;;;;6151986;23;20214;-75
2024/03/28 05:04:08;;;;;;;5.90;5.03;;;5.90;99.90;;;;;;6143709;23;20500;-76
2024/03/28 05:06:34;;;;;;;7.00;5.33;;;5.80;99.90;;;;;;6187012;23;20177;-76
2024/03/28 05:09:00;;;;;;;10.23;6.27;;;5.80;99.90;;;;;;6189131;23;20671;-75
2024/03/28 05:11:25;;;;;;;7.47;5.73;;;5.80;99.90;;;;;;6192937;23;20174;-75
2024/03/28 05:13:51;;;;;;;6.97;5.80;;;5.80;99.90;;;;;;6191705;23;20209;-76
2024/03/28 05:16:17;;;;;;;5.83;4.57;;;5.80;99.90;;;;;;6191950;23;20428;-75
2024/03/28 05:18:43;;;;;;;7.40;5.33;;;5.90;99.90;;;;;;6187213;23;20130;-75
2024/03/28 05:21:09;;;;;;;7.60;5.70;;;5.90;99.90;;;;;;6187328;23;20362;-77
2024/03/28 05:23:35;;;;;;;7.83;6.07;;;5.90;99.90;;;;;;6160464;23;20237;-75
2024/03/28 05:26:00;;;;;;;8.27;5.27;;;5.90;99.90;;;;;;6160543;23;20404;-76
2024/03/28 05:28:26;;;;;;;8.13;4.87;;;5.90;99.90;;;;;;6196716;23;20150;-76
2024/03/28 05:30:52;;;;;;;6.03;4.90;;;5.90;99.90;;;;;;6153321;23;20174;-76
2024/03/28 05:33:19;;;;;;;8.03;5.50;;;5.90;99.90;;;;;;6105575;23;20158;-75
2024/03/28 05:38:33;;;;;;;6.33;4.60;;;5.80;99.90;;;;;;6205000;23;20446;-76
2024/03/28 05:41:02;;;;;;;8.50;5.80;;;5.80;99.90;;;;;;6157088;23;20397;-74
2024/03/28 05:43:35;;;;;;;8.33;6.00;;;5.80;99.90;;;;;;6180853;23;20394;-76
2024/03/28 05:46:01;;;;;;;6.27;4.73;;;5.80;99.90;;;;;;6157573;23;20402;-76
2024/03/28 05:48:26;;;;;;;5.50;4.80;;;5.80;99.90;;;;;;6155805;23;20378;-78
2024/03/28 05:50:52;;;;;;;5.60;4.40;;;5.80;99.90;;;;;;6156640;23;20181;-76
2024/03/28 05:53:32;;;;;;;4.50;3.70;;;5.80;99.90;;;;;;6156428;23;20153;-76
2024/03/28 05:56:15;;;;;;;5.30;4.57;;;5.80;99.90;;;;;;6117914;23;20176;-77
2024/03/28 05:58:41;;;;;;;6.00;4.63;;;5.90;99.90;;;;;;6115915;23;20825;-76
2024/03/28 06:01:07;;;;;;;4.63;3.57;;;5.90;99.90;;;;;;6063323;23;20392;-76
2024/03/28 06:03:51;;;;;;;4.13;3.40;;;5.90;99.90;;;;;;6042672;23;20404;-76
2024/03/28 06:06:17;;;;;;;6.30;3.90;;;6.00;99.90;;;;;;6085995;23;20439;-76
2024/03/28 06:08:44;;;;;;;4.27;3.13;;;6.10;99.90;;;;;;6088694;23;20388;-75
2024/03/28 06:11:13;;;;;;;5.17;3.30;;;6.20;99.90;;;;;;6044777;23;20413;-76
2024/03/28 06:13:44;;;;;;;7.00;4.47;;;6.30;99.90;;;;;;6043961;23;20373;-76
2024/03/28 06:20:28;;;;;;;4.07;2.90;;;6.60;99.90;;;;;;6091634;23;20361;-78
2024/03/28 06:22:54;;;;;;;3.37;3.03;;;6.80;99.90;;;;;;6067144;23;20373;-79
2024/03/28 06:25:45;;;;;;;5.53;2.77;;;6.90;99.90;;;;;;6068470;23;20358;-79
2024/03/28 06:28:24;;;;;;;5.40;3.17;;;7.00;99.90;;;;;;6120933;23;20361;-77
2024/03/28 06:30:56;;;;;;;3.07;2.50;;;7.10;99.90;;;;;;6072160;23;20476;-77
2024/03/28 06:33:25;;;;;;;3.50;2.73;;;7.20;99.90;;;;;;6112273;23;20392;-76
2024/03/28 06:36:13;;;;;;;2.77;2.27;;;7.40;99.90;;;;;;6185950;23;20370;-77
2024/03/28 06:38:41;;;;;;;3.93;2.33;;;7.60;99.90;;;;;;6156549;23;20449;-77
2024/03/28 06:41:09;;;;;;;2.90;2.33;;;7.80;99.90;;;;;;6136551;23;20362;-78
2024/03/28 06:43:58;;;;;;;2.80;2.50;;;8.00;99.90;;;;;;6138391;23;20447;-79
2024/03/28 06:46:53;;;;;;;2.17;1.87;;;8.10;99.90;;;;;;6136603;23;20414;-77
2024/03/28 06:49:46;;;;;;;2.53;2.33;;;8.30;99.90;;;;;;6212410;23;20408;-78
2024/03/28 06:52:31;;;;;;;10.10;2.93;;;8.40;99.90;;;;;;6187234;23;20398;-78
2024/03/28 06:55:01;;;;;;;3.40;1.80;;;8.50;99.90;;;;;;6118338;23;20365;-78
2024/03/28 07:03:25;;;;;;;2.80;2.47;;;8.80;99.90;;;;;;6181357;23;20434;-76
2024/03/28 07:12:12;;;;;;;3.00;2.10;;;8.80;99.90;;;;;;6225882;22;20424;-79
2024/03/28 07:14:50;;;;;;;5.57;2.13;;;8.70;99.90;;;;;;6215608;23;20468;-78
2024/03/28 07:17:25;;;;;;;2.77;2.23;;;8.60;99.90;;;;;;6191966;23;20420;-77
2024/03/28 07:19:54;;;;;;;2.77;2.10;;;8.50;99.90;;;;;;6191333;23;20381;-77
2024/03/28 07:22:35;;;;;;;2.30;2.00;;;8.50;99.90;;;;;;6148155;23;20361;-77
2024/03/28 07:25:06;;;;;;;2.60;1.77;;;8.40;99.90;;;;;;6131633;23;20435;-77
2024/03/28 07:27:39;;;;;;;2.10;1.90;;;8.40;99.90;;;;;;6133872;23;20410;-78
2024/03/28 07:30:15;;;;;;;3.30;2.20;;;8.30;99.90;;;;;;6107080;23;20367;-78
2024/03/28 07:32:48;;;;;;;2.83;2.10;;;8.20;99.90;;;;;;6129810;23;20405;-77
2024/03/28 07:35:38;;;;;;;3.27;1.80;;;8.10;99.90;;;;;;6133519;23;20350;-77
2024/03/28 07:38:14;;;;;;;3.10;2.27;;;7.90;99.90;;;;;;6156143;23;20395;-80
2024/03/28 07:40:50;;;;;;;4.17;2.47;;;7.80;99.90;;;;;;6126726;23;20367;-78
2024/03/28 07:43:39;;;;;;;3.50;2.40;;;7.60;99.90;;;;;;6104994;23;20406;-77
2024/03/28 07:54:58;;;;;;;3.00;1.90;;;7.30;99.90;;;;;;6196585;22;20444;-78
2024/03/28 08:09:37;;;;;;;2.07;1.43;;;7.10;99.90;;;;;;6206979;23;20436;-77
2024/03/28 08:12:14;;;;;;;1.73;1.33;;;7.00;99.90;;;;;;6210267;23;20420;-76
2024/03/28 08:14:44;;;;;;;2.33;1.27;;;7.00;99.90;;;;;;6212116;23;20389;-80
2024/03/28 08:17:52;;;;;;;2.10;1.40;;;7.00;99.90;;;;;;6182551;23;20410;-76
2024/03/28 08:20:20;;;;;;;2.60;1.30;;;7.00;99.90;;;;;;6181841;23;20375;-79
2024/03/28 08:23:10;;;;;;;1.83;1.40;;;7.00;99.90;;;;;;6122530;23;20385;-78
2024/03/28 08:39:48;;;;;;;1.80;1.30;;;7.30;99.90;;;;;;6207826;22;20437;-78
2024/03/28 08:42:21;;;;;;;2.23;1.23;;;7.30;99.90;;;;;;6213388;23;20382;-78
2024/03/28 08:44:54;;;;;;;1.40;0.90;;;7.40;99.90;;;;;;6141541;23;20394;-78
2024/03/28 08:53:25;;;;;;;1.90;1.10;;;7.60;99.90;;;;;;6260875;22;20455;-79
2024/03/28 08:56:48;;;;;;;1.73;1.10;;;7.70;99.90;;;;;;6223652;22;20423;-78
2024/03/28 09:14:06;;;;;;;2.90;1.33;;;7.90;99.90;;;;;;6229614;23;22257;-77
2024/03/28 09:32:37;;;;;;;1.80;0.90;;;9.30;99.90;;;;;;6231571;23;20660;-78
2024/03/28 09:35:39;;;;;;;3.13;0.80;;;9.50;99.90;;;;;;6187466;23;20376;-79
2024/03/28 09:39:08;;;;;;;5.57;1.40;;;9.70;99.90;;;;;;6208809;23;20429;-78
2024/03/28 09:42:28;;;;;;;3.10;1.23;;;9.80;99.90;;;;;;6169701;23;20390;-77
2024/03/28 22:39:34;;;;;;;2.40;1.07;;;7.70;87.40;;;;;;6228636;23;20447;-78
2024/03/28 22:42:28;;;;;;;2.37;0.70;;;7.70;87.50;;;;;;6158312;23;20398;-79
2024/03/28 22:45:23;;;;;;;2.00;1.00;;;7.70;87.70;;;;;;6108271;23;20466;-79
2024/03/28 22:53:27;;;;;;;1.40;0.70;;;7.70;88.10;;;;;;6270168;23;20443;-76
2024/03/28 22:56:05;;;;;;;2.63;1.03;;;7.70;88.00;;;;;;6223338;22;20384;-78
2024/03/28 22:58:50;;;;;;;2.50;1.07;;;7.70;88.10;;;;;;6228411;22;20376;-79
2024/03/28 23:01:19;;;;;;;2.60;1.07;;;7.70;88.30;;;;;;6223840;23;20463;-78
2024/03/28 23:06:57;;;;;;;3.40;1.20;;;7.70;88.40;;;;;;6237761;23;20518;-75
2024/03/28 23:09:36;;;;;;;1.70;0.97;;;7.70;88.40;;;;;;6199201;23;20400;-79
2024/03/28 23:12:07;;;;;;;3.53;1.20;;;7.80;88.30;;;;;;6248424;22;20424;-79
2024/03/28 23:20:14;;;;;;;4.47;1.00;;;7.80;88.00;;;;;;6240137;23;20481;-77
2024/03/28 23:28:32;;;;;;;2.60;1.00;;;7.90;88.00;;;;;;6243093;22;20458;-75
2024/03/28 23:31:25;;;;;;;2.70;1.00;;;7.90;87.90;;;;;;6274589;22;20427;-78
2024/03/28 23:34:42;;;;;;;1.63;0.83;;;7.90;88.00;;;;;;6176921;23;20398;-79
2024/03/28 23:43:16;;;;;;;2.93;0.90;;;7.80;88.20;;;;;;6226736;23;20464;-77
2024/03/28 23:46:32;;;;;;;4.20;1.10;;;7.70;88.60;;;;;;6242985;23;20814;-78
2024/03/28 23:51:51;;;;;;;3.43;1.03;;;7.70;89.30;;;;;;6246414;23;20446;-76
2024/03/28 23:54:26;;;;;;;2.93;0.80;;;7.70;89.60;;;;;;6221568;23;20570;-77
2024/03/28 23:56:54;;;;;;;1.63;0.70;;;7.70;89.80;;;;;;6225328;23;20399;-76
2024/03/28 23:59:44;;;;;;;1.40;0.70;;;7.70;90.00;;;;;;6216814;23;20365;-77
